Time;durP1;ratioP1;P1;durP2;ratioP2;P2;SDS_P1;SDS_P2;PMS_P1;PMS_P2;Temp;Humidity;BMP_temperature;BMP_pressure;BME280_temperature;BME280_humidity;BME280_pressure;Samples;Min_cycle;Max_cycle;Signal;HPM_P1;HPM_P2
2022/05/18 00:01:07;;;;;;;3.40;1.17;;;30.00;41.30;;;;;;5116728;22;20028;-56
2022/05/18 00:03:11;;;;;;;9.35;1.38;;;30.10;41.10;;;;;;5115438;22;20091;-55
2022/05/18 00:05:14;;;;;;;1.35;1.10;;;30.20;41.00;;;;;;5122200;22;20127;-56
2022/05/18 00:07:16;;;;;;;1.75;0.70;;;30.40;40.90;;;;;;5116543;23;20606;-56
2022/05/18 00:09:18;;;;;;;2.65;1.00;;;30.40;40.80;;;;;;5116951;22;20409;-56
2022/05/18 00:11:21;;;;;;;2.03;0.95;;;30.50;40.70;;;;;;5117985;22;20253;-56
2022/05/18 00:13:23;;;;;;;3.72;0.80;;;30.60;40.70;;;;;;5122662;22;20115;-53
2022/05/18 00:15:26;;;;;;;1.60;0.80;;;30.70;40.60;;;;;;5117625;22;20606;-55
2022/05/18 00:17:28;;;;;;;1.52;0.70;;;30.70;40.50;;;;;;5123087;22;20020;-53
2022/05/18 00:19:32;;;;;;;3.23;0.90;;;30.80;40.60;;;;;;5126463;22;20131;-56
2022/05/18 00:21:34;;;;;;;6.22;1.33;;;30.80;40.40;;;;;;5119970;22;20524;-55
2022/05/18 00:23:37;;;;;;;7.15;1.17;;;30.90;40.40;;;;;;5125711;22;20039;-55
2022/05/18 00:25:41;;;;;;;5.25;1.67;;;31.00;40.30;;;;;;5118428;22;20075;-54
2022/05/18 00:27:43;;;;;;;5.68;0.95;;;31.00;40.20;;;;;;5121632;22;20032;-53
2022/05/18 00:29:45;;;;;;;6.25;1.30;;;31.10;40.20;;;;;;5115998;22;20035;-53
2022/05/18 00:31:47;;;;;;;1.97;0.97;;;31.20;40.10;;;;;;5117003;22;20034;-53
2022/05/18 00:33:49;;;;;;;2.50;1.00;;;31.30;40.00;;;;;;5123102;22;20051;-52
2022/05/18 00:35:52;;;;;;;4.78;1.20;;;31.30;39.90;;;;;;5112162;23;20777;-57
2022/05/18 00:37:54;;;;;;;1.10;0.70;;;31.40;39.80;;;;;;5113819;23;20048;-54
2022/05/18 00:39:56;;;;;;;2.57;1.00;;;31.50;39.70;;;;;;5121778;22;20066;-56
2022/05/18 00:41:58;;;;;;;2.90;1.10;;;31.50;39.60;;;;;;5118082;23;20452;-53
2022/05/18 00:44:00;;;;;;;2.83;1.20;;;31.60;39.60;;;;;;5115572;22;20637;-53
2022/05/18 00:46:05;;;;;;;9.85;1.17;;;31.60;39.50;;;;;;5119186;22;20379;-52
2022/05/18 00:48:08;;;;;;;5.05;1.00;;;31.70;39.50;;;;;;5119049;22;20159;-49
2022/05/18 00:50:21;;;;;;;3.63;1.13;;;31.80;39.30;;;;;;5115666;22;20491;-56
2022/05/18 00:52:33;;;;;;;14.65;1.67;;;31.80;39.30;;;;;;5115571;23;20371;-46
2022/05/18 00:54:36;;;;;;;8.63;1.90;;;31.80;39.60;;;;;;5117720;23;20842;-48
2022/05/18 00:57:12;;;;;;;4.47;1.10;;;31.50;40.10;;;;;;5117577;22;20030;-52
2022/05/18 00:59:49;;;;;;;3.22;1.50;;;31.00;40.60;;;;;;5118262;22;20103;-53
2022/05/18 01:01:53;;;;;;;4.57;1.85;;;30.30;40.80;;;;;;5108085;23;20403;-56
2022/05/18 01:03:55;;;;;;;3.17;1.90;;;29.90;41.00;;;;;;5116077;22;20054;-51
2022/05/18 01:06:07;;;;;;;4.97;1.88;;;29.60;41.50;;;;;;5117236;22;20543;-54
2022/05/18 01:08:12;;;;;;;5.07;1.63;;;29.30;41.70;;;;;;5118483;22;20110;-49
2022/05/18 01:10:15;;;;;;;2.65;1.70;;;29.10;42.20;;;;;;5122500;22;20031;-51
2022/05/18 01:12:19;;;;;;;3.28;1.83;;;28.90;42.90;;;;;;5122413;22;20327;-54
2022/05/18 01:14:27;;;;;;;2.83;1.70;;;28.60;42.60;;;;;;5117674;22;20026;-54
2022/05/18 01:16:29;;;;;;;3.85;1.73;;;28.40;43.30;;;;;;5117035;22;20035;-49
2022/05/18 01:18:32;;;;;;;6.40;2.10;;;28.30;43.20;;;;;;5118299;22;20319;-53
2022/05/18 01:20:37;;;;;;;3.13;1.95;;;28.10;43.20;;;;;;5122464;22;20032;-49
2022/05/18 01:22:58;;;;;;;4.22;1.75;;;27.90;43.60;;;;;;5112543;23;20602;-55
2022/05/18 01:25:25;;;;;;;4.88;2.00;;;27.80;44.00;;;;;;5122921;22;20548;-53
2022/05/18 01:27:28;;;;;;;4.90;2.20;;;27.60;44.10;;;;;;5114221;22;20031;-52
2022/05/18 01:29:32;;;;;;;3.95;2.20;;;27.40;44.40;;;;;;5118799;22;20490;-51
2022/05/18 01:31:56;;;;;;;4.05;2.20;;;27.30;44.80;;;;;;5122355;22;20081;-55
2022/05/18 01:34:01;;;;;;;4.38;2.20;;;27.20;45.20;;;;;;5116006;22;20618;-50
2022/05/18 01:36:05;;;;;;;3.50;2.10;;;27.00;44.60;;;;;;5121873;22;20373;-55
2022/05/18 01:38:12;;;;;;;7.25;2.08;;;26.80;44.80;;;;;;5119068;22;20113;-55
2022/05/18 01:40:38;;;;;;;4.60;1.95;;;26.70;44.90;;;;;;5118309;22;20028;-56
2022/05/18 01:42:52;;;;;;;4.05;1.63;;;26.60;45.10;;;;;;5124527;23;20155;-55
2022/05/18 01:44:54;;;;;;;5.57;2.28;;;26.50;45.20;;;;;;5122745;23;20026;-56
2022/05/18 01:46:56;;;;;;;5.45;1.90;;;26.40;45.40;;;;;;5119499;22;20340;-57
2022/05/18 01:48:58;;;;;;;4.63;1.80;;;26.20;46.00;;;;;;5117025;22;20028;-56
2022/05/18 01:51:02;;;;;;;5.97;2.20;;;26.10;45.90;;;;;;5116834;23;20020;-59
2022/05/18 01:53:05;;;;;;;5.00;1.88;;;26.10;46.20;;;;;;5121556;22;20032;-57
2022/05/18 01:55:08;;;;;;;4.07;1.70;;;26.00;46.50;;;;;;5113816;22;20563;-56
2022/05/18 01:57:10;;;;;;;;;;;25.90;46.40;;;;;;5117026;22;20031;-57
2022/05/18 01:59:12;;;;;;;6.25;1.80;;;25.80;47.20;;;;;;5122134;22;19919;-58
2022/05/18 02:01:14;;;;;;;6.22;1.65;;;25.70;46.90;;;;;;5119036;22;20331;-50
2022/05/18 02:03:17;;;;;;;8.68;2.17;;;25.60;47.10;;;;;;5113612;22;20392;-51
2022/05/18 02:05:19;;;;;;;;;;;25.50;47.30;;;;;;5119918;22;20028;-58
2022/05/18 02:07:21;;;;;;;6.18;1.63;;;25.40;47.80;;;;;;5122449;22;19919;-55
2022/05/18 02:09:23;;;;;;;4.82;1.33;;;25.40;48.00;;;;;;5116016;22;20342;-52
2022/05/18 02:11:25;;;;;;;5.45;1.70;;;25.30;48.20;;;;;;5115452;22;20423;-53
2022/05/18 02:13:28;;;;;;;3.55;1.60;;;25.30;48.00;;;;;;5121705;22;20028;-55
2022/05/18 02:15:31;;;;;;;8.93;1.85;;;25.20;48.50;;;;;;5116536;22;21036;-51
2022/05/18 02:17:35;;;;;;;3.25;0.90;;;25.10;48.30;;;;;;5116566;22;20650;-57
2022/05/18 02:19:37;;;;;;;3.28;1.10;;;25.10;48.20;;;;;;5120216;22;20024;-57
2022/05/18 02:21:39;;;;;;;2.55;1.27;;;25.00;48.20;;;;;;5116353;23;20680;-57
2022/05/18 02:23:42;;;;;;;4.60;0.88;;;24.90;48.40;;;;;;5115966;23;20031;-50
2022/05/18 02:25:44;;;;;;;2.13;0.80;;;24.80;48.60;;;;;;5119557;22;20062;-50
2022/05/18 02:27:46;;;;;;;7.03;1.02;;;24.80;48.70;;;;;;5124485;22;20036;-56
2022/05/18 02:29:50;;;;;;;4.05;0.90;;;24.80;48.50;;;;;;5116714;22;20399;-60
2022/05/18 02:31:52;;;;;;;2.13;0.93;;;24.70;48.70;;;;;;5118030;22;20028;-55
2022/05/18 02:33:54;;;;;;;2.78;0.80;;;24.60;48.60;;;;;;5122313;22;20207;-52
2022/05/18 02:35:57;;;;;;;3.92;0.77;;;24.60;48.60;;;;;;5119195;23;20028;-53
2022/05/18 02:37:59;;;;;;;2.08;0.80;;;24.50;48.70;;;;;;5116471;22;20059;-53
2022/05/18 02:40:01;;;;;;;1.85;0.90;;;24.50;48.80;;;;;;5114663;23;20082;-54
2022/05/18 02:42:03;;;;;;;2.53;0.60;;;24.40;49.00;;;;;;5121854;22;20285;-52
2022/05/18 02:44:06;;;;;;;3.20;0.70;;;24.40;49.20;;;;;;5116458;22;20039;-52
2022/05/18 02:46:11;;;;;;;3.13;0.83;;;24.30;49.10;;;;;;5114314;23;20032;-52
2022/05/18 02:48:13;;;;;;;0.60;0.50;;;24.30;49.20;;;;;;5125808;22;20020;-54
2022/05/18 02:50:15;;;;;;;0.73;0.50;;;24.20;49.30;;;;;;5120733;22;20674;-50
2022/05/18 02:52:18;;;;;;;2.08;0.60;;;24.20;49.10;;;;;;5118784;22;20028;-49
2022/05/18 02:56:41;;;;;;;0.70;0.50;;;24.10;49.30;;;;;;5118102;23;20261;-53
2022/05/18 02:58:47;;;;;;;3.08;0.60;;;24.10;49.50;;;;;;5119809;22;20035;-50
2022/05/18 03:00:50;;;;;;;1.38;0.60;;;24.00;49.30;;;;;;5121511;23;20081;-53
2022/05/18 03:02:53;;;;;;;0.85;0.40;;;24.00;49.60;;;;;;5118707;22;20101;-53
2022/05/18 03:04:55;;;;;;;1.48;0.70;;;24.00;49.60;;;;;;5115738;22;20107;-51
2022/05/18 03:07:44;;;;;;;0.40;0.40;;;23.90;49.80;;;;;;5151960;22;20050;-49
2022/05/18 03:16:45;;;;;;;5.38;0.80;;;23.80;49.30;;;;;;5144915;23;20016;-49
2022/05/18 03:18:47;;;;;;;0.65;0.50;;;23.70;48.50;;;;;;5135463;22;20459;-49
2022/05/18 03:25:30;;;;;;;0.68;0.50;;;23.60;48.60;;;;;;5114619;23;20520;-52
2022/05/18 03:27:32;;;;;;;0.93;0.50;;;23.60;48.70;;;;;;5113028;22;20103;-53
2022/05/18 03:29:35;;;;;;;0.40;0.30;;;23.50;48.30;;;;;;5115542;22;20324;-49
2022/05/18 03:31:37;;;;;;;0.47;0.45;;;23.50;48.50;;;;;;5119520;22;20303;-50
2022/05/18 03:33:40;;;;;;;1.90;0.52;;;23.50;48.50;;;;;;5114200;22;20411;-48
2022/05/18 03:35:42;;;;;;;0.85;0.30;;;23.50;48.50;;;;;;5114352;22;20035;-52
2022/05/18 03:37:44;;;;;;;0.90;0.47;;;23.40;48.70;;;;;;5119201;22;20591;-50
2022/05/18 03:39:46;;;;;;;0.32;0.30;;;23.40;48.60;;;;;;5116015;22;20431;-48
2022/05/18 03:41:48;;;;;;;0.20;0.20;;;23.40;48.40;;;;;;5118886;22;20054;-51
2022/05/18 03:43:50;;;;;;;0.52;0.20;;;23.40;48.80;;;;;;5122861;22;20038;-52
2022/05/18 03:45:52;;;;;;;1.10;0.50;;;23.30;48.60;;;;;;5121708;22;20554;-51
2022/05/18 03:47:55;;;;;;;0.32;0.28;;;23.40;48.60;;;;;;5119617;22;20039;-47
2022/05/18 03:49:57;;;;;;;0.57;0.30;;;23.30;48.30;;;;;;5121596;22;20035;-48
2022/05/18 03:52:00;;;;;;;0.38;0.30;;;23.30;48.30;;;;;;5120655;23;20392;-50
2022/05/18 03:54:02;;;;;;;1.17;0.57;;;23.30;48.40;;;;;;5118509;22;20531;-52
2022/05/18 03:56:05;;;;;;;1.10;0.40;;;23.30;48.00;;;;;;5119384;22;20384;-51
2022/05/18 03:58:09;;;;;;;0.95;0.55;;;23.30;48.20;;;;;;5124905;22;20456;-54
2022/05/18 04:00:11;;;;;;;0.63;0.30;;;23.30;48.20;;;;;;5121473;22;20742;-50
2022/05/18 04:02:13;;;;;;;0.95;0.32;;;23.30;48.00;;;;;;5118439;22;20047;-50
2022/05/18 04:04:16;;;;;;;0.75;0.30;;;23.30;47.80;;;;;;5121925;22;20031;-49
2022/05/18 04:06:18;;;;;;;0.25;0.25;;;23.30;47.90;;;;;;5121827;22;20314;-52
2022/05/18 04:08:22;;;;;;;2.50;0.70;;;23.30;48.20;;;;;;5118347;22;20432;-53
2022/05/18 04:10:24;;;;;;;0.68;0.40;;;23.40;49.20;;;;;;5118312;22;20439;-49
2022/05/18 04:12:29;;;;;;;0.68;0.40;;;23.40;49.50;;;;;;5122148;22;20389;-49
2022/05/18 04:14:31;;;;;;;4.05;0.50;;;23.40;49.80;;;;;;5117613;23;20424;-51
2022/05/18 04:16:34;;;;;;;1.85;0.40;;;23.40;50.10;;;;;;5115470;22;20047;-53
2022/05/18 04:18:37;;;;;;;0.57;0.57;;;23.50;50.20;;;;;;5117749;22;20093;-54
2022/05/18 04:20:40;;;;;;;1.73;0.40;;;23.50;50.60;;;;;;5120841;22;20364;-51
2022/05/18 04:22:42;;;;;;;2.28;0.30;;;23.50;50.60;;;;;;5115495;22;20451;-52
2022/05/18 04:24:45;;;;;;;1.30;0.53;;;23.60;50.70;;;;;;5117046;22;20771;-52
2022/05/18 04:26:47;;;;;;;0.20;0.20;;;23.60;50.90;;;;;;5121534;22;20024;-52
2022/05/18 04:28:49;;;;;;;2.15;0.30;;;23.70;50.80;;;;;;5114969;23;20985;-53
2022/05/18 04:30:51;;;;;;;2.10;0.40;;;23.80;50.70;;;;;;5115220;22;20127;-53
2022/05/18 04:32:54;;;;;;;2.05;0.70;;;23.80;50.90;;;;;;5118498;22;20027;-56
2022/05/18 04:34:56;;;;;;;0.90;0.40;;;23.80;50.90;;;;;;5118451;22;20499;-54
2022/05/18 04:36:58;;;;;;;7.85;0.70;;;23.90;50.80;;;;;;5114559;22;20468;-53
2022/05/18 04:39:00;;;;;;;1.77;0.43;;;23.90;50.70;;;;;;5115294;22;20770;-53
2022/05/18 04:41:03;;;;;;;0.90;0.40;;;24.00;50.70;;;;;;5122819;22;20028;-53
2022/05/18 04:43:05;;;;;;;5.38;0.70;;;24.00;50.50;;;;;;5113700;23;20533;-49
2022/05/18 04:45:10;;;;;;;0.93;0.40;;;24.00;50.50;;;;;;5115802;22;20032;-53
2022/05/18 04:47:12;;;;;;;7.53;0.65;;;24.10;50.40;;;;;;5121092;22;20031;-53
2022/05/18 04:49:15;;;;;;;0.55;0.50;;;24.10;50.20;;;;;;5116069;23;20320;-53
2022/05/18 04:51:17;;;;;;;1.58;0.60;;;24.20;50.50;;;;;;5117884;22;20032;-50
2022/05/18 04:53:19;;;;;;;1.15;0.52;;;24.20;50.20;;;;;;5115883;22;20581;-56
2022/05/18 04:55:21;;;;;;;1.75;0.65;;;24.20;50.10;;;;;;5121326;22;20028;-54
2022/05/18 04:57:23;;;;;;;2.83;0.80;;;24.20;50.10;;;;;;5112638;23;20379;-53
2022/05/18 04:59:25;;;;;;;2.33;0.80;;;24.30;50.10;;;;;;5111340;23;20091;-53
2022/05/18 05:01:30;;;;;;;3.00;0.52;;;24.30;50.10;;;;;;5121285;22;20039;-54
2022/05/18 05:03:32;;;;;;;0.93;0.45;;;24.30;50.10;;;;;;5116120;22;20504;-50
2022/05/18 05:05:34;;;;;;;2.85;0.73;;;24.40;50.10;;;;;;5116710;22;20528;-51
2022/05/18 05:07:36;;;;;;;1.30;0.60;;;24.40;50.10;;;;;;5116924;22;20601;-55
2022/05/18 05:09:39;;;;;;;2.88;0.90;;;24.40;50.10;;;;;;5119267;22;20024;-54
2022/05/18 05:11:42;;;;;;;2.03;0.80;;;24.40;50.00;;;;;;5114180;22;20042;-52
2022/05/18 05:13:45;;;;;;;5.18;0.88;;;24.40;50.00;;;;;;5112756;22;20175;-54
2022/05/18 05:15:47;;;;;;;1.88;0.68;;;24.40;50.10;;;;;;5122349;22;20495;-53
2022/05/18 05:17:50;;;;;;;2.53;0.70;;;24.40;50.10;;;;;;5119602;22;21053;-50
2022/05/18 05:19:52;;;;;;;2.88;0.77;;;24.40;50.10;;;;;;5120222;22;20028;-55
2022/05/18 05:21:54;;;;;;;3.63;0.80;;;24.40;50.20;;;;;;5124358;22;20032;-49
2022/05/18 05:23:56;;;;;;;1.38;0.77;;;24.30;50.10;;;;;;5124290;22;20390;-54
2022/05/18 05:25:59;;;;;;;5.15;1.20;;;24.30;50.20;;;;;;5120813;22;20082;-52
2022/05/18 05:28:02;;;;;;;3.50;0.70;;;24.20;50.30;;;;;;5119986;23;20039;-51
2022/05/18 05:30:05;;;;;;;3.03;0.63;;;24.20;49.80;;;;;;5125401;22;20593;-48
2022/05/18 05:32:08;;;;;;;3.35;0.82;;;24.20;50.40;;;;;;5113197;22;20032;-50
2022/05/18 05:34:10;;;;;;;1.92;0.60;;;24.20;50.60;;;;;;5117325;22;20285;-52
2022/05/18 05:36:13;;;;;;;3.30;0.88;;;24.10;50.60;;;;;;5121969;22;20032;-54
2022/05/18 05:38:15;;;;;;;1.88;0.73;;;24.10;50.70;;;;;;5121541;22;20459;-56
2022/05/18 05:40:17;;;;;;;2.85;0.75;;;24.10;50.70;;;;;;5116376;22;20123;-52
2022/05/18 05:42:19;;;;;;;3.73;1.10;;;24.00;50.60;;;;;;5120765;22;20039;-52
2022/05/18 05:44:21;;;;;;;2.30;0.68;;;24.00;50.80;;;;;;5120594;23;20281;-54
2022/05/18 05:46:27;;;;;;;4.55;0.88;;;24.00;50.90;;;;;;5116695;22;20484;-51
2022/05/18 05:48:30;;;;;;;0.80;0.43;;;24.00;51.00;;;;;;5115555;22;20028;-53
2022/05/18 05:50:33;;;;;;;3.83;0.93;;;24.00;51.70;;;;;;5120637;23;20032;-55
2022/05/18 05:52:35;;;;;;;1.65;0.57;;;23.90;51.10;;;;;;5121264;22;20529;-56
2022/05/18 05:54:37;;;;;;;2.42;0.52;;;23.80;51.30;;;;;;5116272;22;20632;-54
2022/05/18 05:56:39;;;;;;;3.45;0.70;;;23.80;51.30;;;;;;5116352;22;20115;-53
2022/05/18 05:58:43;;;;;;;2.17;0.52;;;23.80;52.10;;;;;;5123889;22;20104;-55
2022/05/18 06:00:45;;;;;;;2.47;0.68;;;23.80;51.40;;;;;;5116727;22;20430;-56
2022/05/18 06:02:47;;;;;;;1.27;0.60;;;23.80;51.50;;;;;;5115817;22;20047;-53
2022/05/18 06:04:50;;;;;;;2.25;0.50;;;23.70;51.50;;;;;;5121917;22;20063;-56
2022/05/18 06:06:52;;;;;;;2.03;0.68;;;23.70;51.50;;;;;;5116360;22;20637;-52
2022/05/18 06:08:54;;;;;;;3.17;0.52;;;23.60;51.50;;;;;;5113079;23;20289;-50
2022/05/18 06:10:56;;;;;;;1.65;0.68;;;23.60;51.60;;;;;;5121112;22;20428;-58
2022/05/18 06:12:58;;;;;;;3.88;0.70;;;23.60;51.60;;;;;;5120116;23;20059;-57
2022/05/18 06:15:00;;;;;;;1.42;0.70;;;23.60;51.70;;;;;;5116514;22;20028;-55
2022/05/18 06:17:02;;;;;;;1.50;0.70;;;23.50;51.60;;;;;;5118327;22;20138;-56
2022/05/18 06:19:04;;;;;;;5.15;0.50;;;23.50;51.70;;;;;;5118973;22;20125;-56
2022/05/18 06:21:07;;;;;;;1.95;0.68;;;23.50;51.70;;;;;;5115754;22;20433;-56
2022/05/18 06:23:11;;;;;;;3.00;0.85;;;23.50;51.60;;;;;;5116489;22;20028;-57
2022/05/18 06:25:15;;;;;;;1.08;0.50;;;23.40;51.70;;;;;;5121395;22;20193;-55
2022/05/18 06:27:18;;;;;;;0.80;0.55;;;23.40;51.80;;;;;;5122088;22;20326;-57
2022/05/18 06:29:20;;;;;;;1.00;0.40;;;23.40;51.80;;;;;;5118664;22;20651;-59
2022/05/18 06:31:22;;;;;;;1.98;0.60;;;23.30;51.70;;;;;;5116570;22;20027;-54
2022/05/18 06:33:24;;;;;;;4.88;1.05;;;23.30;51.90;;;;;;5123591;22;20372;-52
2022/05/18 06:35:26;;;;;;;4.18;1.42;;;23.30;52.10;;;;;;5117143;22;21107;-58
2022/05/18 06:37:28;;;;;;;4.53;1.75;;;23.30;52.20;;;;;;5114678;22;20031;-57
2022/05/18 06:39:30;;;;;;;3.90;2.42;;;23.30;52.10;;;;;;5120287;23;20028;-56
2022/05/18 06:41:34;;;;;;;5.40;2.95;;;23.30;51.80;;;;;;5118864;22;20652;-56
2022/05/18 06:43:36;;;;;;;10.90;3.28;;;23.40;50.60;;;;;;5118535;23;20115;-54
2022/05/18 06:45:39;;;;;;;4.60;3.13;;;23.40;50.30;;;;;;5119480;23;20059;-54
2022/05/18 06:47:41;;;;;;;9.27;3.10;;;23.40;50.50;;;;;;5146416;22;20102;-56
2022/05/18 06:49:43;;;;;;;3.88;2.22;;;23.30;50.70;;;;;;5118171;22;20024;-52
2022/05/18 06:51:46;;;;;;;4.90;2.70;;;23.30;51.00;;;;;;5117617;22;20028;-57
2022/05/18 06:53:53;;;;;;;5.63;2.63;;;23.20;51.30;;;;;;5122166;22;20620;-52
2022/05/18 06:55:55;;;;;;;8.10;2.50;;;23.20;51.60;;;;;;5116746;23;20032;-52
2022/05/18 06:57:58;;;;;;;4.05;2.17;;;23.10;51.70;;;;;;5116457;22;20051;-57
2022/05/18 07:00:04;;;;;;;3.20;1.90;;;23.10;51.80;;;;;;5115946;22;20354;-53
2022/05/18 07:02:08;;;;;;;8.75;2.28;;;23.10;52.00;;;;;;5118853;23;20520;-53
2022/05/18 07:04:10;;;;;;;2.63;1.60;;;23.00;52.10;;;;;;5118460;22;20030;-57
2022/05/18 07:06:15;;;;;;;3.22;1.92;;;23.00;52.30;;;;;;5114557;22;20424;-58
2022/05/18 07:08:17;;;;;;;3.85;1.92;;;23.00;51.80;;;;;;5136972;22;20032;-57
2022/05/18 07:10:19;;;;;;;3.35;1.75;;;22.90;50.90;;;;;;5121372;22;20102;-56
2022/05/18 07:12:21;;;;;;;3.42;1.60;;;22.90;50.80;;;;;;5116746;22;20502;-55
2022/05/18 07:14:27;;;;;;;5.20;2.00;;;22.80;50.60;;;;;;5117363;22;20131;-59
2022/05/18 07:16:30;;;;;;;4.97;1.80;;;22.80;50.40;;;;;;5118326;22;20032;-59
2022/05/18 07:18:33;;;;;;;2.70;1.75;;;22.70;50.80;;;;;;5127160;22;20032;-59
2022/05/18 07:20:36;;;;;;;4.15;1.45;;;22.60;50.60;;;;;;5124457;22;20024;-58
2022/05/18 07:22:38;;;;;;;3.95;1.85;;;22.60;50.80;;;;;;5121399;22;20115;-54
2022/05/18 07:28:28;;;;;;;4.85;2.25;;;22.50;50.90;;;;;;5173130;23;20505;-58
2022/05/18 07:30:56;;;;;;;6.15;1.75;;;22.50;51.30;;;;;;5162948;22;20463;-55
2022/05/18 07:32:59;;;;;;;3.50;1.70;;;22.40;51.50;;;;;;5117475;22;20432;-52
2022/05/18 07:35:01;;;;;;;12.20;2.17;;;22.40;51.70;;;;;;5118303;22;20203;-59
2022/05/18 07:37:04;;;;;;;8.48;1.90;;;22.40;52.10;;;;;;5113645;22;20604;-57
2022/05/18 07:39:06;;;;;;;4.80;1.45;;;22.40;52.10;;;;;;5114452;23;20024;-56
2022/05/18 07:41:11;;;;;;;8.35;1.92;;;22.40;52.30;;;;;;5121754;22;20117;-56
2022/05/18 07:43:13;;;;;;;3.90;1.40;;;22.40;52.40;;;;;;5138266;22;21226;-59
2022/05/18 07:45:17;;;;;;;5.18;1.40;;;22.40;53.30;;;;;;5114705;22;20663;-59
2022/05/18 07:47:27;;;;;;;5.97;1.38;;;22.30;52.70;;;;;;5117202;22;20524;-58
2022/05/18 07:49:33;;;;;;;4.75;1.27;;;22.30;52.80;;;;;;5118889;22;20078;-57
2022/05/18 07:51:35;;;;;;;5.13;1.20;;;22.30;53.00;;;;;;5119803;22;21174;-58
2022/05/18 07:53:38;;;;;;;4.37;1.43;;;22.30;53.10;;;;;;5115093;22;20059;-57
2022/05/18 07:55:40;;;;;;;4.03;0.80;;;22.30;53.20;;;;;;5113346;22;20024;-55
2022/05/18 07:57:42;;;;;;;10.25;1.65;;;22.30;53.30;;;;;;5118288;23;20535;-59
2022/05/18 07:59:45;;;;;;;3.43;0.97;;;22.30;54.00;;;;;;5112702;23;20541;-58
2022/05/18 08:01:47;;;;;;;4.75;1.23;;;22.30;53.40;;;;;;5112336;22;20020;-56
2022/05/18 08:03:49;;;;;;;2.60;0.98;;;22.20;53.50;;;;;;5115313;23;20023;-59
2022/05/18 08:05:51;;;;;;;1.60;0.70;;;22.20;53.50;;;;;;5117023;22;20226;-58
2022/05/18 08:07:54;;;;;;;1.27;0.68;;;22.20;53.60;;;;;;5113612;22;20457;-56
2022/05/18 08:16:57;;;;;;;1.15;0.63;;;22.20;53.70;;;;;;5120166;23;20452;-57
2022/05/18 08:18:59;;;;;;;1.60;0.60;;;22.20;53.90;;;;;;5113366;23;20501;-59
2022/05/18 08:21:01;;;;;;;4.57;0.70;;;22.10;53.80;;;;;;5114304;22;20024;-59
2022/05/18 08:23:03;;;;;;;1.67;0.70;;;22.10;53.80;;;;;;5118996;22;20039;-59
2022/05/18 08:25:06;;;;;;;2.25;0.68;;;22.10;53.90;;;;;;5116981;22;20031;-59
2022/05/18 08:27:14;;;;;;;6.20;1.00;;;22.10;53.90;;;;;;5113019;23;20161;-59
2022/05/18 08:29:16;;;;;;;5.28;1.00;;;22.10;53.90;;;;;;5113511;22;20094;-53
2022/05/18 08:31:20;;;;;;;5.40;1.42;;;22.10;54.00;;;;;;5120867;22;20051;-59
2022/05/18 08:33:22;;;;;;;5.35;1.08;;;22.10;54.10;;;;;;5116136;23;20621;-57
2022/05/18 08:35:25;;;;;;;4.55;1.02;;;22.10;54.10;;;;;;5114835;22;20412;-56
2022/05/18 08:37:27;;;;;;;6.87;1.00;;;22.00;54.00;;;;;;5115138;22;20028;-59
2022/05/18 08:39:29;;;;;;;0.52;0.50;;;22.10;54.10;;;;;;5120365;22;20128;-59
2022/05/18 08:41:42;;;;;;;2.92;0.80;;;22.00;54.10;;;;;;5116687;22;20028;-56
2022/05/18 08:43:53;;;;;;;2.30;0.73;;;22.00;54.00;;;;;;5140851;22;20032;-57
2022/05/18 08:46:34;;;;;;;0.65;0.50;;;22.00;54.10;;;;;;5117910;22;20024;-57
2022/05/18 08:48:44;;;;;;;2.13;0.60;;;22.00;54.10;;;;;;5114615;22;20031;-60
2022/05/18 08:50:46;;;;;;;2.53;0.57;;;22.00;54.20;;;;;;5115306;22;20035;-59
2022/05/18 08:53:17;;;;;;;2.78;0.70;;;22.00;54.30;;;;;;5120243;22;20036;-59
2022/05/18 08:55:58;;;;;;;2.67;0.50;;;22.00;54.20;;;;;;5039605;23;20489;-58
2022/05/18 08:58:01;;;;;;;2.05;0.90;;;22.00;54.30;;;;;;5113320;23;20389;-59
2022/05/18 09:00:14;;;;;;;1.88;0.43;;;22.00;54.30;;;;;;5112998;23;20024;-60
2022/05/18 09:02:25;;;;;;;0.68;0.52;;;21.90;54.30;;;;;;5116578;22;20035;-60
2022/05/18 09:04:38;;;;;;;1.17;0.55;;;21.90;54.40;;;;;;5116725;22;20035;-60
2022/05/18 09:07:05;;;;;;;3.00;0.68;;;21.90;54.40;;;;;;5115842;22;20035;-60
2022/05/18 09:11:27;;;;;;;4.03;0.70;;;21.90;54.50;;;;;;5121159;23;20051;-59
2022/05/18 09:13:30;;;;;;;0.90;0.63;;;21.90;54.60;;;;;;5115170;22;20639;-58
2022/05/18 09:15:40;;;;;;;2.03;1.02;;;21.90;54.60;;;;;;5117642;23;20028;-58
2022/05/18 09:18:13;;;;;;;1.98;0.88;;;21.90;54.60;;;;;;5115902;22;20082;-57
2022/05/18 09:20:24;;;;;;;2.28;0.65;;;21.90;54.70;;;;;;5123144;22;20459;-56
2022/05/18 09:23:10;;;;;;;1.77;0.80;;;21.80;54.70;;;;;;5123289;22;20086;-58
2022/05/18 09:25:24;;;;;;;3.90;0.68;;;21.80;54.80;;;;;;5118781;23;20333;-60
2022/05/18 09:27:48;;;;;;;1.10;0.75;;;21.80;54.80;;;;;;5122585;22;20058;-54
2022/05/18 09:30:09;;;;;;;8.80;1.30;;;21.80;54.80;;;;;;5118511;22;20039;-57
2022/05/18 09:32:42;;;;;;;1.13;0.57;;;21.80;54.70;;;;;;5117511;22;20035;-57
2022/05/18 09:35:04;;;;;;;3.42;0.60;;;21.80;54.40;;;;;;5118464;22;20143;-58
2022/05/18 09:37:18;;;;;;;2.75;0.82;;;21.70;54.30;;;;;;5118219;22;20082;-54
2022/05/18 09:39:25;;;;;;;1.38;0.70;;;21.70;54.20;;;;;;5117762;23;20032;-56
2022/05/18 09:41:34;;;;;;;1.45;0.68;;;21.70;54.30;;;;;;5117004;22;20028;-63
2022/05/18 09:43:47;;;;;;;3.35;0.77;;;21.70;54.30;;;;;;5118567;22;20035;-62
2022/05/18 09:45:50;;;;;;;1.45;0.68;;;21.70;54.20;;;;;;5113589;23;20467;-58
2022/05/18 09:47:57;;;;;;;0.68;0.60;;;21.60;54.10;;;;;;5121387;22;20119;-62
2022/05/18 09:50:06;;;;;;;1.88;0.60;;;21.60;54.10;;;;;;5123972;22;20040;-59
2022/05/18 09:52:08;;;;;;;1.83;0.90;;;21.60;54.60;;;;;;5120607;22;20456;-61
2022/05/18 09:54:11;;;;;;;2.28;0.60;;;21.60;54.20;;;;;;5117481;22;20390;-59
2022/05/18 09:56:25;;;;;;;2.13;0.80;;;21.60;54.00;;;;;;5117655;22;20335;-59
2022/05/18 09:58:41;;;;;;;1.02;0.60;;;21.60;54.20;;;;;;5117083;22;20532;-49
2022/05/18 10:00:43;;;;;;;0.70;0.68;;;21.60;54.10;;;;;;5117971;22;20591;-49
2022/05/18 10:07:46;;;;;;;2.03;0.47;;;21.50;54.20;;;;;;5121483;23;20047;-54
2022/05/18 10:09:50;;;;;;;0.70;0.40;;;21.50;54.20;;;;;;5121746;22;20055;-58
2022/05/18 10:11:52;;;;;;;2.55;0.93;;;21.40;54.20;;;;;;5112373;23;20499;-53
2022/05/18 10:14:00;;;;;;;1.40;0.73;;;21.40;54.10;;;;;;5117127;22;20458;-52
2022/05/18 10:16:16;;;;;;;5.75;1.00;;;21.40;54.20;;;;;;5116541;22;20024;-58
2022/05/18 10:18:24;;;;;;;3.10;1.05;;;21.40;54.30;;;;;;5118363;22;20196;-55
2022/05/18 10:20:31;;;;;;;2.78;0.77;;;21.40;54.50;;;;;;5119591;22;20548;-53
2022/05/18 10:22:41;;;;;;;3.92;1.02;;;21.40;54.60;;;;;;5123636;22;20028;-56
2022/05/18 10:25:08;;;;;;;2.90;1.05;;;21.40;54.60;;;;;;5122631;22;20086;-54
2022/05/18 10:27:12;;;;;;;4.95;0.75;;;21.40;54.70;;;;;;5117158;22;20032;-51
2022/05/18 10:29:14;;;;;;;2.15;0.50;;;21.40;54.70;;;;;;5117716;22;20087;-57
2022/05/18 10:31:46;;;;;;;2.80;0.70;;;21.40;54.80;;;;;;5123767;22;20351;-53
2022/05/18 10:33:48;;;;;;;8.65;1.25;;;21.40;55.00;;;;;;5118076;22;20308;-54
2022/05/18 10:35:54;;;;;;;4.70;1.08;;;21.40;55.10;;;;;;5118730;22;20058;-57
2022/05/18 10:38:03;;;;;;;3.13;0.80;;;21.40;55.20;;;;;;5124303;22;20032;-53
2022/05/18 10:40:18;;;;;;;4.10;0.82;;;21.40;55.30;;;;;;5122378;22;20028;-55
2022/05/18 10:42:30;;;;;;;4.22;0.70;;;21.30;55.20;;;;;;5122014;22;20027;-59
2022/05/18 10:44:36;;;;;;;3.38;0.80;;;21.30;55.30;;;;;;5121181;23;20362;-54
2022/05/18 10:46:47;;;;;;;3.78;0.98;;;21.30;55.40;;;;;;5118399;23;20457;-59
2022/05/18 10:49:21;;;;;;;2.83;1.00;;;21.30;55.40;;;;;;5119261;22;20221;-58
2022/05/18 10:51:43;;;;;;;1.80;0.70;;;21.30;55.40;;;;;;5116772;22;20778;-53
2022/05/18 10:53:47;;;;;;;1.42;0.57;;;21.30;55.60;;;;;;5118527;22;20805;-52
2022/05/18 10:56:03;;;;;;;1.35;0.60;;;21.30;55.50;;;;;;5117423;22;20020;-56
2022/05/18 10:58:21;;;;;;;1.83;0.80;;;21.30;55.50;;;;;;5118411;22;20488;-59
2022/05/18 11:00:28;;;;;;;4.47;0.90;;;21.30;55.60;;;;;;5120222;22;20979;-54
2022/05/18 11:02:36;;;;;;;2.38;0.70;;;21.30;55.70;;;;;;5117244;22;20024;-59
2022/05/18 11:04:41;;;;;;;5.28;0.93;;;21.30;55.70;;;;;;5118735;22;20032;-58
2022/05/18 11:06:43;;;;;;;3.15;0.65;;;21.30;55.70;;;;;;5117531;22;20499;-54
2022/05/18 11:08:46;;;;;;;2.33;0.82;;;21.30;55.70;;;;;;5122752;22;20371;-59
2022/05/18 11:10:59;;;;;;;1.60;0.57;;;21.30;55.70;;;;;;5118353;22;20947;-57
2022/05/18 11:13:11;;;;;;;2.67;0.60;;;21.30;55.70;;;;;;5117552;22;20284;-57
2022/05/18 11:15:36;;;;;;;3.42;0.65;;;21.20;55.60;;;;;;5118214;22;20028;-53
2022/05/18 11:17:56;;;;;;;3.88;0.85;;;21.30;55.70;;;;;;5120889;22;20387;-54
2022/05/18 11:20:29;;;;;;;2.55;0.65;;;21.20;55.90;;;;;;5116981;22;20111;-54
2022/05/18 11:22:39;;;;;;;7.38;1.13;;;21.20;56.00;;;;;;5122207;22;20084;-50
2022/05/18 11:25:06;;;;;;;3.83;0.77;;;21.20;56.00;;;;;;5123987;22;20107;-52
2022/05/18 11:27:27;;;;;;;2.08;0.60;;;21.20;56.00;;;;;;5077528;22;20071;-58
2022/05/18 11:29:51;;;;;;;3.58;0.80;;;21.20;56.00;;;;;;5116441;22;20028;-53